Time;durP1;ratioP1;P1;durP2;ratioP2;P2;SDS_P1;SDS_P2;PMS_P1;PMS_P2;Temp;Humidity;BMP_temperature;BMP_pressure;BME280_temperature;BME280_humidity;BME280_pressure;Samples;Min_cycle;Max_cycle;Signal;HPM_P1;HPM_P2
2023/01/18 00:01:07;;;;;;;27.27;12.25;;;1.00;99.90;;;;;;4962669;28;20041;-76
2023/01/18 00:03:34;;;;;;;25.60;12.77;;;0.90;99.90;;;;;;4969499;28;20092;-77
2023/01/18 00:06:01;;;;;;;26.15;13.70;;;0.90;99.90;;;;;;4971046;28;20054;-76
2023/01/18 00:08:31;;;;;;;32.75;16.08;;;0.90;99.90;;;;;;4972610;28;20042;-75
2023/01/18 00:11:14;;;;;;;27.58;12.85;;;0.90;99.90;;;;;;4969909;28;20059;-75
2023/01/18 00:13:40;;;;;;;28.50;13.05;;;0.90;99.90;;;;;;4968004;28;20022;-77
2023/01/18 00:16:12;;;;;;;28.15;13.90;;;0.90;99.90;;;;;;4977119;28;20034;-77
2023/01/18 00:18:37;;;;;;;28.38;13.00;;;0.90;99.90;;;;;;4970016;28;20069;-74
2023/01/18 00:21:06;;;;;;;25.83;12.95;;;1.00;99.90;;;;;;4972047;28;20054;-76
2023/01/18 00:23:31;;;;;;;23.55;12.70;;;1.00;99.90;;;;;;4968855;28;20240;-74
2023/01/18 00:26:01;;;;;;;25.60;11.65;;;1.10;99.90;;;;;;4978098;28;20030;-77
2023/01/18 00:28:27;;;;;;;24.80;11.85;;;1.10;99.90;;;;;;4971501;28;20039;-76
2023/01/18 00:30:53;;;;;;;23.77;12.88;;;1.10;99.90;;;;;;4965286;28;20038;-76
2023/01/18 00:33:19;;;;;;;24.45;11.68;;;1.10;99.90;;;;;;4970107;28;20031;-76
2023/01/18 00:35:54;;;;;;;26.20;13.57;;;1.10;99.90;;;;;;4972154;28;20030;-77
2023/01/18 00:38:20;;;;;;;21.50;11.30;;;1.20;99.90;;;;;;4969224;28;20027;-76
2023/01/18 00:40:45;;;;;;;21.08;11.25;;;1.20;99.90;;;;;;4973383;28;20042;-77
2023/01/18 00:45:55;;;;;;;28.83;13.30;;;1.30;99.90;;;;;;4972683;28;20042;-78
2023/01/18 00:48:24;;;;;;;27.27;12.98;;;1.30;99.90;;;;;;4971449;28;20035;-75
2023/01/18 00:50:52;;;;;;;29.15;14.10;;;1.30;99.90;;;;;;4964673;28;20023;-76
2023/01/18 00:53:21;;;;;;;26.13;12.40;;;1.30;99.90;;;;;;4968942;28;20019;-76
2023/01/18 00:55:49;;;;;;;26.98;12.77;;;1.30;99.90;;;;;;4971011;28;20031;-76
2023/01/18 00:58:15;;;;;;;26.15;12.07;;;1.30;99.90;;;;;;4972758;28;20077;-73
2023/01/18 01:00:44;;;;;;;26.17;13.20;;;1.40;99.90;;;;;;4967068;28;20034;-76
2023/01/18 01:03:11;;;;;;;22.98;12.00;;;1.30;99.90;;;;;;4969272;28;20086;-76
2023/01/18 01:08:34;;;;;;;29.50;13.32;;;1.30;99.90;;;;;;4970588;28;20050;-75
2023/01/18 01:11:11;;;;;;;26.25;13.05;;;1.30;99.90;;;;;;4968339;28;20073;-78
2023/01/18 01:27:25;;;;;;;31.13;13.02;;;1.30;99.90;;;;;;4968023;28;19932;-77
2023/01/18 01:29:59;;;;;;;28.40;13.88;;;1.40;99.90;;;;;;4966946;28;20022;-77
2023/01/18 01:32:25;;;;;;;28.63;13.40;;;1.40;99.90;;;;;;4969225;28;20435;-77
2023/01/18 01:34:51;;;;;;;27.83;13.30;;;1.40;99.90;;;;;;4974409;28;20026;-74
2023/01/18 01:37:16;;;;;;;30.70;14.02;;;1.30;99.90;;;;;;4968855;28;20027;-75
2023/01/18 01:39:45;;;;;;;33.72;16.02;;;1.40;99.90;;;;;;4966752;28;20034;-74
2023/01/18 01:42:11;;;;;;;29.88;14.52;;;1.40;99.90;;;;;;4969187;28;20082;-75
2023/01/18 01:44:45;;;;;;;28.70;14.07;;;1.30;99.90;;;;;;5004492;23;20062;-79
2023/01/18 01:47:23;;;;;;;33.80;15.35;;;1.40;99.90;;;;;;4997480;28;20474;-79
2023/01/18 01:49:53;;;;;;;24.27;12.40;;;1.30;99.90;;;;;;4997105;28;20042;-79
2023/01/18 01:52:27;;;;;;;32.28;14.48;;;1.30;99.90;;;;;;4992478;28;20066;-78
2023/01/18 01:55:00;;;;;;;30.85;15.13;;;1.30;99.90;;;;;;4994335;28;20045;-78
2023/01/18 01:57:36;;;;;;;34.92;15.80;;;1.40;99.90;;;;;;5009731;28;20034;-79
2023/01/18 02:00:12;;;;;;;30.60;14.07;;;1.30;99.90;;;;;;4990568;28;20026;-79
2023/01/18 02:02:39;;;;;;;37.92;15.23;;;1.30;99.90;;;;;;4996313;28;20026;-78
2023/01/18 02:05:06;;;;;;;33.50;15.88;;;1.30;99.90;;;;;;4996024;28;20372;-79
2023/01/18 02:07:33;;;;;;;30.45;13.90;;;1.30;99.90;;;;;;4997661;28;20030;-76
2023/01/18 02:10:00;;;;;;;26.70;12.98;;;1.30;99.90;;;;;;5001706;28;20031;-76
2023/01/18 02:12:28;;;;;;;31.23;14.88;;;1.30;99.90;;;;;;5001074;28;20122;-79
2023/01/18 02:14:54;;;;;;;28.17;13.93;;;1.30;99.90;;;;;;5000857;28;20094;-79
2023/01/18 02:17:44;;;;;;;25.38;12.10;;;1.20;99.90;;;;;;5000635;28;20107;-78
2023/01/18 02:20:28;;;;;;;32.13;15.02;;;1.30;99.90;;;;;;5003502;28;20165;-78
2023/01/18 02:23:33;;;;;;;27.95;14.52;;;1.20;99.90;;;;;;5005553;28;20078;-78
2023/01/18 02:26:24;;;;;;;28.88;12.85;;;1.20;99.90;;;;;;5006488;28;20014;-79
2023/01/18 02:29:14;;;;;;;26.95;12.25;;;1.20;99.90;;;;;;5000284;28;20030;-79
2023/01/18 02:32:03;;;;;;;29.83;14.55;;;1.20;99.90;;;;;;5004526;28;20483;-80
2023/01/18 02:34:49;;;;;;;28.83;13.52;;;1.20;99.90;;;;;;5010027;28;20025;-79
2023/01/18 02:37:48;;;;;;;26.98;12.77;;;1.20;99.90;;;;;;5006184;28;20034;-79
2023/01/18 02:40:35;;;;;;;31.05;14.55;;;1.20;99.90;;;;;;5024203;28;20015;-79
2023/01/18 02:48:47;;;;;;;27.08;12.73;;;1.20;99.90;;;;;;5009481;28;20611;-79
2023/01/18 02:51:12;;;;;;;25.27;12.95;;;1.30;99.90;;;;;;5010196;28;20019;-79
2023/01/18 02:53:43;;;;;;;26.38;12.15;;;1.30;99.90;;;;;;5017384;28;20378;-78
2023/01/18 02:56:29;;;;;;;26.25;12.77;;;1.20;99.90;;;;;;5004201;28;20030;-80
2023/01/18 02:58:58;;;;;;;24.00;11.82;;;1.20;99.90;;;;;;5009164;28;20030;-80
2023/01/18 03:01:44;;;;;;;26.40;12.25;;;1.20;99.90;;;;;;5007476;28;20065;-80
2023/01/18 03:04:18;;;;;;;28.08;12.77;;;1.30;99.90;;;;;;5005733;28;20018;-79
2023/01/18 03:06:56;;;;;;;26.80;13.02;;;1.30;99.90;;;;;;5006026;28;20053;-80
2023/01/18 03:09:25;;;;;;;24.52;12.13;;;1.30;99.90;;;;;;5003345;28;20043;-80
2023/01/18 03:12:18;;;;;;;24.02;12.30;;;1.30;99.90;;;;;;5021439;28;20052;-80
2023/01/18 03:15:03;;;;;;;25.20;12.52;;;1.30;99.90;;;;;;5021120;28;20033;-80
2023/01/18 03:17:54;;;;;;;27.75;13.10;;;1.30;99.90;;;;;;5004594;28;20030;-80
2023/01/18 03:20:30;;;;;;;28.48;14.25;;;1.30;99.90;;;;;;5005314;28;20034;-79
2023/01/18 03:26:06;;;;;;;27.50;13.43;;;1.40;99.90;;;;;;5004675;28;20088;-79
2023/01/18 03:34:51;;;;;;;21.50;11.77;;;1.40;99.90;;;;;;4989814;28;20049;-79
2023/01/18 03:37:29;;;;;;;21.10;10.35;;;1.40;99.90;;;;;;4991184;28;20181;-81
2023/01/18 03:40:30;;;;;;;23.23;10.93;;;1.30;99.90;;;;;;5008755;28;20039;-79
2023/01/18 03:43:04;;;;;;;23.88;11.15;;;1.30;99.90;;;;;;4932931;28;20539;-81
2023/01/18 03:45:47;;;;;;;23.95;12.02;;;1.30;99.90;;;;;;4989234;28;20559;-79
2023/01/18 03:48:13;;;;;;;24.05;11.60;;;1.30;99.90;;;;;;4994855;28;20529;-79
2023/01/18 03:50:49;;;;;;;26.20;11.70;;;1.30;99.90;;;;;;4997441;28;20022;-80
2023/01/18 03:53:41;;;;;;;22.58;11.20;;;1.30;99.90;;;;;;4980409;28;20034;-79
2023/01/18 03:56:59;;;;;;;25.42;10.95;;;1.30;99.90;;;;;;5000921;28;20058;-79
2023/01/18 03:59:29;;;;;;;24.77;12.13;;;1.40;99.90;;;;;;4970782;28;20104;-78
2023/01/18 04:01:54;;;;;;;25.08;12.07;;;1.40;99.90;;;;;;4999466;28;20073;-79
2023/01/18 04:04:20;;;;;;;26.67;12.93;;;1.40;99.90;;;;;;4998471;28;20038;-78
2023/01/18 04:06:46;;;;;;;25.98;12.52;;;1.40;99.90;;;;;;4998273;28;20606;-80
2023/01/18 04:09:11;;;;;;;22.40;12.27;;;1.40;99.90;;;;;;4995677;28;20038;-80
2023/01/18 04:11:37;;;;;;;25.30;12.80;;;1.40;99.90;;;;;;5000591;28;20050;-79
2023/01/18 04:14:02;;;;;;;23.45;11.80;;;1.50;99.90;;;;;;4986499;28;20038;-78
2023/01/18 04:16:28;;;;;;;25.00;12.52;;;1.50;99.90;;;;;;4984624;28;20054;-79
2023/01/18 04:18:54;;;;;;;27.50;13.05;;;1.50;99.90;;;;;;4984656;28;20069;-80
2023/01/18 04:21:28;;;;;;;27.25;13.32;;;1.40;99.90;;;;;;5002517;28;20035;-80
2023/01/18 04:23:54;;;;;;;26.75;12.55;;;1.40;99.90;;;;;;5004474;28;20045;-80
2023/01/18 04:26:26;;;;;;;31.63;14.25;;;1.40;99.90;;;;;;4995840;28;20088;-80
2023/01/18 04:28:52;;;;;;;29.63;13.85;;;1.40;99.90;;;;;;4996630;28;20583;-79
2023/01/18 04:31:23;;;;;;;30.98;14.70;;;1.40;99.90;;;;;;4998469;28;20061;-80
2023/01/18 04:33:50;;;;;;;33.88;14.05;;;1.40;99.90;;;;;;4999670;28;20045;-79
2023/01/18 04:36:17;;;;;;;27.90;12.98;;;1.40;99.90;;;;;;4996400;28;20024;-80
2023/01/18 04:38:58;;;;;;;28.98;14.20;;;1.40;99.90;;;;;;5001700;28;20026;-80
2023/01/18 04:41:24;;;;;;;26.67;12.95;;;1.40;99.90;;;;;;4989375;28;20044;-80
2023/01/18 04:43:49;;;;;;;30.60;13.95;;;1.40;99.90;;;;;;5002833;28;20029;-80
2023/01/18 04:46:15;;;;;;;31.40;14.88;;;1.40;99.90;;;;;;4983423;28;20034;-78
2023/01/18 04:48:50;;;;;;;32.67;14.30;;;1.40;99.90;;;;;;5000839;28;20035;-79
2023/01/18 04:51:17;;;;;;;33.88;14.73;;;1.40;99.90;;;;;;4970853;28;20086;-78
2023/01/18 04:53:49;;;;;;;28.35;14.32;;;1.40;99.90;;;;;;4995975;28;20069;-78
2023/01/18 04:56:15;;;;;;;31.42;14.75;;;1.40;99.90;;;;;;4995189;28;20049;-78
2023/01/18 04:58:44;;;;;;;28.98;14.95;;;1.40;99.90;;;;;;4984206;28;20034;-79
2023/01/18 05:01:15;;;;;;;36.05;15.80;;;1.40;99.90;;;;;;4981124;28;20022;-78
2023/01/18 05:03:41;;;;;;;36.47;15.20;;;1.40;99.90;;;;;;4999661;28;20090;-79
2023/01/18 05:06:09;;;;;;;33.80;15.30;;;1.40;99.90;;;;;;4996525;28;20059;-79
2023/01/18 05:08:39;;;;;;;30.20;14.40;;;1.40;99.90;;;;;;4997746;28;20070;-77
2023/01/18 05:11:08;;;;;;;34.45;14.88;;;1.40;99.90;;;;;;5000593;28;20046;-77
2023/01/18 05:13:38;;;;;;;32.17;15.15;;;1.40;99.90;;;;;;4995145;28;20091;-78
2023/01/18 05:16:04;;;;;;;30.15;14.98;;;1.40;99.90;;;;;;4981098;28;20022;-78
2023/01/18 05:18:30;;;;;;;28.30;13.90;;;1.40;99.90;;;;;;4992809;28;20438;-77
2023/01/18 05:21:05;;;;;;;30.05;14.32;;;1.40;99.90;;;;;;4979178;28;20058;-78
2023/01/18 05:23:31;;;;;;;26.70;12.88;;;1.30;99.90;;;;;;4993427;28;20594;-77
2023/01/18 05:25:57;;;;;;;24.15;11.23;;;1.30;99.90;;;;;;4997190;28;20061;-77
2023/01/18 05:28:26;;;;;;;22.90;11.60;;;1.30;99.90;;;;;;4997104;28;20030;-78
2023/01/18 05:30:53;;;;;;;19.17;10.10;;;1.30;99.90;;;;;;4983825;28;20439;-79
2023/01/18 05:33:20;;;;;;;18.92;9.60;;;1.30;99.90;;;;;;4997472;28;20062;-78
2023/01/18 05:35:51;;;;;;;12.85;7.75;;;1.20;99.90;;;;;;4997778;28;20035;-78
2023/01/18 05:38:18;;;;;;;15.80;7.90;;;1.20;99.90;;;;;;4988154;28;20041;-77
2023/01/18 05:40:44;;;;;;;16.13;8.90;;;1.20;99.90;;;;;;4997660;28;20037;-79
2023/01/18 05:43:11;;;;;;;15.05;7.90;;;1.10;99.90;;;;;;4993132;28;20046;-79
2023/01/18 05:45:37;;;;;;;12.45;7.22;;;1.10;99.90;;;;;;4981905;28;20034;-76
2023/01/18 05:48:03;;;;;;;14.80;7.82;;;1.10;99.90;;;;;;5002682;28;20430;-77
2023/01/18 05:50:28;;;;;;;13.45;6.97;;;1.10;99.90;;;;;;4984365;28;20023;-79
2023/01/18 05:52:57;;;;;;;13.40;7.45;;;1.10;99.90;;;;;;5002857;28;20510;-78
2023/01/18 05:55:23;;;;;;;13.85;7.00;;;1.10;99.90;;;;;;5003978;28;20042;-79
2023/01/18 05:57:48;;;;;;;13.63;7.07;;;1.10;99.90;;;;;;5002742;28;20635;-78
2023/01/18 06:00:14;;;;;;;12.95;6.45;;;1.10;99.90;;;;;;4999731;28;20077;-79
2023/01/18 06:02:40;;;;;;;12.93;6.82;;;1.10;99.90;;;;;;4979395;28;20034;-77
2023/01/18 06:05:06;;;;;;;10.90;6.75;;;1.00;99.90;;;;;;4998181;28;20509;-77
2023/01/18 06:07:31;;;;;;;12.63;7.32;;;1.00;99.90;;;;;;4999155;28;20034;-78
2023/01/18 06:09:57;;;;;;;16.90;8.07;;;1.00;99.90;;;;;;4978767;28;20117;-71
2023/01/18 06:12:23;;;;;;;14.30;8.38;;;1.10;99.90;;;;;;4986639;28;20161;-71
2023/01/18 06:14:49;;;;;;;21.65;17.13;;;1.10;99.90;;;;;;4991844;28;20102;-71
2023/01/18 06:17:15;;;;;;;17.83;12.63;;;1.20;99.90;;;;;;4970528;28;20110;-71
2023/01/18 06:19:41;;;;;;;13.27;8.55;;;1.20;99.90;;;;;;4992356;28;20034;-71
2023/01/18 06:22:10;;;;;;;14.40;7.78;;;1.30;99.90;;;;;;4990916;28;20029;-71
2023/01/18 06:24:38;;;;;;;12.90;7.00;;;1.30;99.90;;;;;;4990506;28;20100;-70
2023/01/18 06:27:04;;;;;;;14.73;7.63;;;1.30;99.90;;;;;;4973532;28;20054;-77
2023/01/18 06:29:29;;;;;;;14.05;7.82;;;1.30;99.90;;;;;;4988218;28;20093;-76
2023/01/18 06:32:01;;;;;;;22.35;9.30;;;1.40;99.90;;;;;;4990211;28;20031;-77
2023/01/18 06:34:29;;;;;;;15.02;7.55;;;1.40;99.90;;;;;;4987229;28;20042;-77
2023/01/18 06:36:58;;;;;;;16.05;7.82;;;1.30;99.90;;;;;;4986234;28;20034;-76
2023/01/18 06:39:24;;;;;;;12.88;6.88;;;1.30;99.90;;;;;;4990417;28;20026;-75
2023/01/18 06:41:53;;;;;;;11.95;5.70;;;1.30;99.90;;;;;;4976656;28;20029;-76
2023/01/18 06:44:19;;;;;;;12.05;5.75;;;1.20;99.90;;;;;;4989856;28;20026;-76
2023/01/18 06:46:45;;;;;;;11.70;6.43;;;1.20;99.90;;;;;;4995592;28;20029;-76
2023/01/18 06:49:11;;;;;;;10.02;5.18;;;1.20;99.90;;;;;;4972437;28;20117;-76
2023/01/18 06:51:37;;;;;;;11.80;5.20;;;1.10;99.90;;;;;;4973296;28;20034;-77
2023/01/18 06:54:03;;;;;;;11.88;5.72;;;1.00;99.90;;;;;;4984433;28;20034;-77
2023/01/18 06:56:29;;;;;;;13.05;5.55;;;1.10;99.90;;;;;;4989164;28;20041;-76
2023/01/18 06:58:57;;;;;;;8.88;5.35;;;1.10;99.90;;;;;;4970883;28;20033;-76
2023/01/18 07:01:29;;;;;;;10.27;5.75;;;1.00;99.90;;;;;;4993045;28;20562;-77
2023/01/18 07:04:00;;;;;;;12.95;6.68;;;1.00;99.90;;;;;;4990987;28;20030;-75
2023/01/18 07:06:26;;;;;;;9.82;5.20;;;1.10;99.90;;;;;;4985302;28;20141;-77
2023/01/18 07:08:54;;;;;;;8.32;5.15;;;1.00;99.90;;;;;;4988947;28;20113;-76
2023/01/18 07:11:20;;;;;;;14.70;6.72;;;1.00;99.90;;;;;;4986837;28;20027;-76
2023/01/18 07:13:48;;;;;;;11.48;5.53;;;1.00;99.90;;;;;;4975411;28;20041;-77
2023/01/18 07:16:17;;;;;;;8.65;5.00;;;1.10;99.90;;;;;;4992598;28;20114;-75
2023/01/18 07:18:48;;;;;;;11.60;5.22;;;1.00;99.90;;;;;;4989293;28;20046;-76
2023/01/18 07:21:15;;;;;;;10.23;5.35;;;1.00;99.90;;;;;;4977656;28;20033;-75
2023/01/18 07:23:41;;;;;;;10.25;5.65;;;1.00;99.90;;;;;;4985245;28;20435;-76
2023/01/18 07:26:15;;;;;;;9.93;4.97;;;1.00;99.90;;;;;;4988437;28;20035;-76
2023/01/18 07:28:45;;;;;;;12.38;6.03;;;1.00;99.90;;;;;;4974017;28;20027;-76
2023/01/18 07:31:11;;;;;;;9.82;4.78;;;1.00;99.90;;;;;;4990068;28;20026;-75
2023/01/18 07:33:36;;;;;;;10.07;5.57;;;1.00;99.90;;;;;;4990373;28;20042;-75
2023/01/18 07:36:05;;;;;;;12.02;5.70;;;1.00;99.90;;;;;;4991258;28;20041;-76
2023/01/18 07:38:31;;;;;;;9.00;5.35;;;1.10;99.90;;;;;;4988703;28;20394;-77
2023/01/18 07:41:01;;;;;;;10.07;5.72;;;1.10;99.90;;;;;;4974212;28;20132;-76
2023/01/18 07:43:31;;;;;;;7.88;4.38;;;1.10;99.90;;;;;;4972743;28;20080;-76
2023/01/18 07:45:58;;;;;;;10.73;4.97;;;1.10;99.90;;;;;;4992808;28;20038;-76
2023/01/18 07:48:27;;;;;;;8.38;4.55;;;1.10;99.90;;;;;;4993724;28;20030;-76
2023/01/18 07:50:54;;;;;;;8.90;5.00;;;1.10;99.90;;;;;;4987599;28;20591;-76
2023/01/18 07:53:20;;;;;;;8.60;5.28;;;1.10;99.90;;;;;;4992051;28;20034;-76
2023/01/18 07:55:46;;;;;;;9.20;5.18;;;1.10;99.90;;;;;;4976739;28;20028;-76
2023/01/18 07:58:16;;;;;;;8.50;5.15;;;1.10;99.90;;;;;;4971271;28;20110;-78
2023/01/18 08:00:45;;;;;;;10.30;5.97;;;1.10;99.90;;;;;;4989861;28;20022;-76
2023/01/18 08:03:16;;;;;;;11.77;6.63;;;1.10;99.90;;;;;;4989906;28;20027;-76
2023/01/18 08:05:45;;;;;;;10.82;8.38;;;1.10;99.90;;;;;;4989874;28;20077;-76
2023/01/18 08:08:15;;;;;;;10.20;8.00;;;1.10;99.90;;;;;;4974696;28;20032;-78
2023/01/18 08:10:42;;;;;;;9.35;6.55;;;1.20;99.90;;;;;;4990762;28;20054;-77
2023/01/18 08:13:11;;;;;;;10.40;6.82;;;1.20;99.90;;;;;;4992778;28;20022;-77
2023/01/18 08:15:42;;;;;;;10.18;7.70;;;1.10;99.90;;;;;;4984897;28;20049;-75
2023/01/18 08:18:08;;;;;;;10.63;6.95;;;1.10;99.90;;;;;;4988914;28;20534;-76
2023/01/18 08:20:34;;;;;;;15.25;9.10;;;1.10;99.90;;;;;;4990381;28;20122;-77
2023/01/18 08:23:01;;;;;;;9.70;5.43;;;1.10;99.90;;;;;;4993537;28;20049;-77
2023/01/18 08:25:30;;;;;;;10.52;6.03;;;1.10;99.90;;;;;;4995783;28;20472;-78
2023/01/18 08:27:59;;;;;;;13.07;7.57;;;1.10;99.90;;;;;;4996135;28;20069;-77
2023/01/18 08:30:30;;;;;;;12.38;7.25;;;1.10;99.90;;;;;;4973106;28;20476;-77
2023/01/18 08:33:01;;;;;;;10.45;6.10;;;1.10;99.90;;;;;;4991009;28;22085;-77
2023/01/18 08:35:29;;;;;;;9.45;5.85;;;1.10;99.90;;;;;;4993584;28;20522;-78
2023/01/18 08:37:55;;;;;;;8.93;5.72;;;1.10;99.90;;;;;;4995140;28;20026;-78
2023/01/18 08:40:22;;;;;;;11.20;7.55;;;1.10;99.90;;;;;;4978998;28;20126;-77
2023/01/18 08:42:48;;;;;;;15.73;8.45;;;1.10;99.90;;;;;;4986133;28;20045;-77
2023/01/18 08:45:14;;;;;;;10.18;7.00;;;1.10;99.90;;;;;;4994873;28;20053;-77
2023/01/18 08:47:40;;;;;;;10.93;7.43;;;1.10;99.90;;;;;;4973358;28;20030;-77
2023/01/18 08:50:07;;;;;;;15.60;7.68;;;1.20;99.90;;;;;;4997159;28;20022;-76
2023/01/18 08:52:34;;;;;;;10.23;7.53;;;1.20;99.90;;;;;;4978552;28;20022;-77
2023/01/18 08:55:03;;;;;;;10.05;6.57;;;1.20;99.90;;;;;;4995282;28;20021;-77
2023/01/18 08:57:29;;;;;;;11.18;6.80;;;1.20;99.90;;;;;;4993711;28;20062;-78
2023/01/18 08:59:55;;;;;;;10.85;6.88;;;1.20;99.90;;;;;;4991060;28;20010;-77
2023/01/18 09:02:22;;;;;;;9.57;6.53;;;1.20;99.90;;;;;;4994491;28;20034;-77
2023/01/18 09:04:48;;;;;;;9.07;5.85;;;1.20;99.90;;;;;;4996363;28;20123;-77
2023/01/18 09:07:14;;;;;;;12.13;5.80;;;1.20;99.90;;;;;;4993714;28;20026;-77
2023/01/18 09:09:40;;;;;;;9.27;5.38;;;1.20;99.90;;;;;;4993307;28;20045;-76
2023/01/18 09:12:06;;;;;;;9.35;4.97;;;1.20;99.90;;;;;;4996523;28;20040;-76
2023/01/18 09:14:32;;;;;;;7.65;4.55;;;1.30;99.90;;;;;;4997741;28;20575;-77
2023/01/18 09:16:57;;;;;;;9.50;6.22;;;1.30;99.90;;;;;;4996802;28;20041;-77
2023/01/18 09:19:23;;;;;;;8.30;5.40;;;1.30;99.90;;;;;;4998806;28;20031;-77
2023/01/18 09:21:50;;;;;;;10.70;5.22;;;1.30;99.90;;;;;;4982304;28;20101;-77
2023/01/18 09:24:16;;;;;;;10.70;6.22;;;1.30;99.90;;;;;;4993314;28;20033;-77
2023/01/18 09:26:47;;;;;;;8.38;5.97;;;1.30;99.90;;;;;;4996573;28;20030;-77
2023/01/18 09:29:13;;;;;;;9.60;6.18;;;1.30;99.90;;;;;;4998139;28;20020;-77
2023/01/18 09:31:42;;;;;;;12.00;6.40;;;1.30;99.90;;;;;;4998802;28;20084;-77
2023/01/18 09:34:08;;;;;;;9.57;5.70;;;1.30;99.90;;;;;;5004397;28;20041;-78
2023/01/18 09:36:33;;;;;;;9.88;5.82;;;1.30;99.90;;;;;;4997503;28;20395;-78
2023/01/18 09:39:00;;;;;;;7.68;4.82;;;1.40;99.90;;;;;;4997913;28;20023;-78
2023/01/18 09:41:41;;;;;;;8.98;4.95;;;1.30;99.90;;;;;;4993206;28;20085;-78
2023/01/18 09:44:28;;;;;;;12.43;6.10;;;1.30;99.90;;;;;;4997784;28;20031;-78
2023/01/18 09:46:58;;;;;;;8.43;5.40;;;1.30;99.90;;;;;;4999196;28;20105;-78
2023/01/18 09:49:51;;;;;;;12.25;6.32;;;1.30;99.90;;;;;;4999679;28;20077;-78
2023/01/18 09:52:31;;;;;;;11.90;5.63;;;1.20;99.90;;;;;;5002936;28;20045;-78
2023/01/18 09:55:14;;;;;;;10.13;5.20;;;1.20;99.90;;;;;;4994422;28;20079;-77
2023/01/18 09:58:02;;;;;;;12.25;5.30;;;1.20;99.90;;;;;;4993771;28;20050;-78
2023/01/18 10:00:32;;;;;;;10.52;5.60;;;1.30;99.90;;;;;;4995475;28;20031;-78
2023/01/18 10:03:01;;;;;;;11.18;5.55;;;1.30;99.90;;;;;;4999549;28;20035;-78
2023/01/18 10:05:34;;;;;;;10.90;5.68;;;1.30;99.90;;;;;;4981676;28;20030;-78
2023/01/18 10:08:15;;;;;;;17.50;7.33;;;1.30;99.90;;;;;;4995372;28;20121;-78
2023/01/18 10:11:15;;;;;;;11.32;5.95;;;1.30;99.90;;;;;;4979962;28;20280;-77
2023/01/18 10:13:53;;;;;;;10.70;5.93;;;1.40;99.90;;;;;;4986040;28;20097;-76
2023/01/18 10:16:19;;;;;;;8.60;5.22;;;1.40;99.90;;;;;;4976069;28;20030;-76
2023/01/18 10:18:47;;;;;;;12.85;5.65;;;1.50;99.90;;;;;;4991169;28;20049;-77
2023/01/18 10:21:46;;;;;;;7.93;4.63;;;1.50;99.90;;;;;;4980525;28;20022;-77
2023/01/18 10:24:31;;;;;;;8.27;4.10;;;1.50;99.90;;;;;;4993258;28;20030;-77
2023/01/18 10:27:16;;;;;;;9.30;5.03;;;1.50;99.90;;;;;;4997929;28;20038;-79
2023/01/18 10:30:24;;;;;;;7.13;4.45;;;1.60;99.90;;;;;;4977693;28;20023;-78
2023/01/18 10:32:57;;;;;;;10.00;4.20;;;1.60;99.90;;;;;;4994997;28;20054;-78
2023/01/18 10:35:30;;;;;;;8.18;4.55;;;1.70;99.90;;;;;;4998070;28;20028;-77
2023/01/18 10:37:59;;;;;;;;;;;1.70;99.90;;;;;;5001599;28;20057;-78
2023/01/18 10:40:26;;;;;;;6.97;4.60;;;1.70;99.90;;;;;;4993346;28;19921;-77
2023/01/18 10:42:56;;;;;;;8.07;4.20;;;1.80;99.90;;;;;;4991893;28;20073;-78
2023/01/18 10:45:30;;;;;;;6.78;3.40;;;1.80;99.90;;;;;;4995784;28;20037;-79
2023/01/18 10:48:01;;;;;;;5.47;3.65;;;1.80;99.90;;;;;;4995102;28;20117;-78
2023/01/18 10:50:37;;;;;;;8.55;3.78;;;1.90;99.90;;;;;;4976769;28;20026;-79
2023/01/18 10:53:30;;;;;;;6.90;3.88;;;1.80;99.90;;;;;;4995940;28;20088;-79
2023/01/18 10:56:11;;;;;;;6.33;3.67;;;1.80;99.90;;;;;;4998002;28;20030;-78
2023/01/18 10:58:36;;;;;;;8.23;3.70;;;1.80;99.90;;;;;;4989978;28;20705;-79
2023/01/18 11:01:02;;;;;;;7.93;3.47;;;1.90;99.90;;;;;;4996185;28;20061;-79
2023/01/18 11:03:36;;;;;;;5.88;3.72;;;1.80;99.90;;;;;;4975654;28;20105;-79
2023/01/18 11:06:05;;;;;;;6.93;3.72;;;1.80;99.90;;;;;;4993480;28;20029;-78
2023/01/18 11:08:33;;;;;;;6.05;3.88;;;1.80;99.90;;;;;;4976029;28;20073;-79
2023/01/18 11:11:02;;;;;;;6.35;3.28;;;1.80;99.90;;;;;;4996512;28;20018;-78
2023/01/18 11:13:42;;;;;;;5.03;2.83;;;1.80;99.90;;;;;;4978071;28;20037;-78
2023/01/18 11:16:11;;;;;;;4.32;3.08;;;1.70;99.90;;;;;;4995861;28;20026;-78
2023/01/18 11:18:37;;;;;;;6.03;3.42;;;1.70;99.90;;;;;;4991910;28;20372;-78
2023/01/18 11:21:09;;;;;;;7.55;3.97;;;1.70;99.90;;;;;;4981112;28;20058;-78
2023/01/18 11:23:35;;;;;;;6.50;3.35;;;1.70;99.90;;;;;;4996628;28;20026;-79
2023/01/18 11:26:11;;;;;;;6.65;3.78;;;1.60;99.90;;;;;;4981179;28;20027;-78
2023/01/18 11:28:43;;;;;;;7.10;4.28;;;1.60;99.90;;;;;;4995972;28;20735;-79
2023/01/18 11:31:12;;;;;;;7.85;3.85;;;1.60;99.90;;;;;;4993067;28;20023;-79
2023/01/18 11:33:52;;;;;;;6.72;3.58;;;1.60;99.90;;;;;;4994109;28;20042;-78
2023/01/18 11:36:20;;;;;;;6.90;3.53;;;1.60;99.90;;;;;;4993721;28;20026;-79
2023/01/18 11:38:46;;;;;;;8.13;4.35;;;1.60;99.90;;;;;;4994035;28;20034;-79
2023/01/18 11:41:16;;;;;;;7.53;3.92;;;1.50;99.90;;;;;;4991245;28;20027;-79
2023/01/18 11:44:13;;;;;;;8.15;4.28;;;1.50;99.90;;;;;;4990966;28;20336;-79
2023/01/18 11:46:45;;;;;;;7.97;4.35;;;1.60;99.90;;;;;;4953881;28;20042;-80
2023/01/18 11:49:15;;;;;;;7.97;4.70;;;1.50;99.90;;;;;;4980148;28;20158;-78
2023/01/18 11:52:01;;;;;;;8.18;4.05;;;1.40;99.90;;;;;;4994632;28;20041;-77
2023/01/18 11:54:29;;;;;;;9.02;4.70;;;1.40;99.90;;;;;;4981388;28;20491;-79
2023/01/18 11:57:01;;;;;;;7.30;4.78;;;1.30;99.90;;;;;;4994340;28;20391;-79
2023/01/18 11:59:29;;;;;;;6.88;4.10;;;1.30;99.90;;;;;;4992423;28;20088;-77
2023/01/18 12:02:14;;;;;;;7.75;4.25;;;1.20;99.90;;;;;;4993941;28;20058;-81
2023/01/18 12:04:39;;;;;;;5.45;3.72;;;1.20;99.90;;;;;;4985579;28;20073;-81
2023/01/18 12:07:32;;;;;;;8.70;4.68;;;1.30;99.90;;;;;;5001922;28;20048;-80
2023/01/18 12:10:03;;;;;;;9.13;4.47;;;1.20;99.90;;;;;;5003348;28;20078;-80
2023/01/18 12:12:58;;;;;;;6.75;3.88;;;1.20;99.90;;;;;;5004353;28;20057;-80
2023/01/18 12:15:26;;;;;;;6.35;4.07;;;1.20;99.90;;;;;;4997295;28;20049;-80
2023/01/18 12:18:16;;;;;;;6.15;3.60;;;1.20;99.90;;;;;;5003797;28;20030;-78
2023/01/18 12:21:11;;;;;;;7.00;3.88;;;1.30;99.90;;;;;;4986562;28;20023;-79
2023/01/18 12:23:52;;;;;;;12.00;6.40;;;1.30;99.90;;;;;;4985360;28;20543;-79
2023/01/18 12:26:57;;;;;;;9.65;5.63;;;1.30;99.90;;;;;;5002907;28;20045;-77
2023/01/18 12:29:47;;;;;;;10.50;6.90;;;1.40;99.90;;;;;;4992689;28;20034;-80
2023/01/18 12:32:16;;;;;;;12.18;4.90;;;1.40;99.90;;;;;;4990792;28;20074;-80
2023/01/18 12:35:06;;;;;;;10.80;5.85;;;1.40;99.90;;;;;;4975200;28;20109;-79
2023/01/18 12:37:53;;;;;;;7.82;4.35;;;1.40;99.90;;;;;;4974860;28;20035;-80
2023/01/18 12:40:57;;;;;;;9.82;4.55;;;1.40;99.90;;;;;;4995536;28;20040;-79
2023/01/18 12:43:29;;;;;;;9.05;5.30;;;1.40;99.90;;;;;;4981624;28;20096;-78
2023/01/18 12:46:06;;;;;;;11.95;6.22;;;1.40;99.90;;;;;;4992802;28;20030;-80
2023/01/18 12:48:53;;;;;;;16.63;7.75;;;1.40;99.90;;;;;;4981872;28;20471;-80
2023/01/18 12:51:22;;;;;;;16.10;7.93;;;1.40;99.90;;;;;;4997895;28;20032;-79
2023/01/18 12:54:04;;;;;;;18.42;8.45;;;1.40;99.90;;;;;;4995696;28;20033;-82
2023/01/18 12:56:31;;;;;;;14.98;7.38;;;1.50;99.90;;;;;;4995460;28;20501;-79
2023/01/18 12:59:27;;;;;;;16.67;7.15;;;1.50;99.90;;;;;;4994948;28;20479;-79
2023/01/18 13:02:08;;;;;;;12.63;5.82;;;1.50;99.90;;;;;;4981455;28;20062;-79
2023/01/18 13:04:41;;;;;;;12.80;6.13;;;1.60;99.90;;;;;;4999736;28;20022;-80
2023/01/18 13:07:14;;;;;;;10.70;6.20;;;1.70;99.90;;;;;;4996962;28;20018;-80
2023/01/18 13:09:44;;;;;;;11.90;5.75;;;1.70;99.90;;;;;;4999370;28;20027;-79
2023/01/18 13:12:11;;;;;;;10.50;5.85;;;1.70;99.90;;;;;;4983673;28;20058;-80
2023/01/18 13:14:52;;;;;;;11.15;5.93;;;1.80;99.90;;;;;;4993063;28;20033;-80
2023/01/18 13:17:17;;;;;;;10.20;5.32;;;1.80;99.90;;;;;;4995580;28;20034;-80
2023/01/18 13:20:03;;;;;;;9.00;5.95;;;1.80;99.90;;;;;;4999177;28;20045;-81
2023/01/18 13:23:14;;;;;;;9.98;5.38;;;1.80;99.90;;;;;;4998411;28;20050;-80
2023/01/18 13:25:48;;;;;;;9.73;5.07;;;1.80;99.90;;;;;;5002548;28;20022;-79
2023/01/18 13:28:22;;;;;;;8.73;5.57;;;1.80;99.90;;;;;;4988522;28;20022;-80
2023/01/18 13:30:55;;;;;;;8.77;5.47;;;1.80;99.90;;;;;;4999185;28;20596;-79
2023/01/18 13:33:29;;;;;;;10.50;5.30;;;1.80;99.90;;;;;;4984595;28;20035;-78
2023/01/18 13:36:10;;;;;;;8.63;5.07;;;1.80;99.90;;;;;;4995981;28;20027;-79
2023/01/18 13:38:47;;;;;;;7.85;4.90;;;1.80;99.90;;;;;;4996367;28;20030;-80
2023/01/18 13:41:15;;;;;;;11.40;5.40;;;1.80;99.90;;;;;;4995743;28;20022;-80
2023/01/18 13:43:44;;;;;;;9.73;5.70;;;1.80;99.90;;;;;;4998626;28;20018;-78
2023/01/18 13:46:13;;;;;;;8.70;5.75;;;1.90;99.90;;;;;;4987509;28;20041;-78